Time;durP1;ratioP1;P1;durP2;ratioP2;P2;SDS_P1;SDS_P2;PMS_P1;PMS_P2;Temp;Humidity;BMP_temperature;BMP_pressure;BME280_temperature;BME280_humidity;BME280_pressure;Samples;Min_cycle;Max_cycle;Signal;HPM_P1;HPM_P2
2022/05/20 00:01:06;;;;;;;17.17;11.75;;;16.70;71.20;;;;;;5114656;28;20044;-68
2022/05/20 00:03:33;;;;;;;16.00;11.00;;;16.80;71.20;;;;;;5114641;28;20103;-68
2022/05/20 00:06:00;;;;;;;14.20;9.48;;;16.70;71.00;;;;;;5113641;28;20030;-68
2022/05/20 00:08:27;;;;;;;15.27;8.80;;;16.70;70.60;;;;;;5113547;28;20024;-68
2022/05/20 00:10:56;;;;;;;13.23;9.18;;;16.50;70.50;;;;;;5114503;28;20482;-68
2022/05/20 00:13:25;;;;;;;12.57;8.48;;;16.40;70.70;;;;;;5113645;28;20020;-68
2022/05/20 00:15:51;;;;;;;12.80;8.70;;;16.50;70.50;;;;;;5114384;28;20046;-68
2022/05/20 00:18:17;;;;;;;14.52;9.52;;;16.50;70.60;;;;;;5114410;28;20051;-68
2022/05/20 00:20:43;;;;;;;14.85;11.18;;;16.60;70.60;;;;;;5114338;28;20084;-68
2022/05/20 00:23:09;;;;;;;31.40;9.65;;;16.60;70.80;;;;;;5114231;28;20028;-69
2022/05/20 00:25:47;;;;;;;10.25;7.85;;;16.50;70.60;;;;;;5114164;28;20048;-68
2022/05/20 00:28:24;;;;;;;12.63;8.18;;;16.20;71.00;;;;;;5114158;28;20080;-68
2022/05/20 00:31:00;;;;;;;16.92;10.63;;;16.10;71.60;;;;;;5114128;28;20046;-68
2022/05/20 00:33:27;;;;;;;11.25;9.18;;;16.10;72.00;;;;;;5114254;28;20079;-68
2022/05/20 00:35:53;;;;;;;15.05;10.65;;;16.10;71.80;;;;;;5114055;28;20020;-68
2022/05/20 00:38:18;;;;;;;10.07;7.95;;;16.10;72.30;;;;;;5114001;28;20034;-68
2022/05/20 00:40:46;;;;;;;9.93;8.55;;;16.20;71.40;;;;;;5113951;28;20084;-68
2022/05/20 00:43:27;;;;;;;10.88;6.38;;;16.20;70.70;;;;;;5113837;28;20100;-68
2022/05/20 00:46:00;;;;;;;17.90;9.80;;;16.00;70.60;;;;;;5113949;28;20023;-68
2022/05/20 00:48:28;;;;;;;15.50;10.52;;;15.80;71.50;;;;;;5113899;28;20050;-68
2022/05/20 00:50:56;;;;;;;12.15;9.65;;;15.70;72.60;;;;;;5113903;28;20020;-68
2022/05/20 00:53:26;;;;;;;13.20;9.88;;;15.80;72.70;;;;;;5113712;28;20027;-68
2022/05/20 00:55:52;;;;;;;16.67;11.15;;;15.90;72.40;;;;;;5113764;28;20035;-68
2022/05/20 00:58:23;;;;;;;14.88;10.82;;;15.90;72.50;;;;;;5113697;28;20031;-68
2022/05/20 01:00:54;;;;;;;14.00;9.45;;;16.00;72.30;;;;;;5113708;28;20020;-68
2022/05/20 01:03:24;;;;;;;12.27;9.73;;;15.90;71.70;;;;;;5113689;28;20027;-69
2022/05/20 01:05:52;;;;;;;11.75;10.40;;;15.90;71.60;;;;;;5113637;28;20039;-68
2022/05/20 01:08:21;;;;;;;11.02;9.18;;;15.90;71.40;;;;;;5113617;28;20024;-68
2022/05/20 01:10:47;;;;;;;11.55;9.82;;;15.90;71.40;;;;;;5113533;28;20020;-68
2022/05/20 01:13:15;;;;;;;11.40;10.20;;;15.90;71.30;;;;;;5113469;28;20042;-68
2022/05/20 01:15:41;;;;;;;13.80;10.50;;;15.90;70.40;;;;;;5113464;28;20024;-68
2022/05/20 01:18:08;;;;;;;11.73;10.10;;;15.60;70.90;;;;;;5113429;28;20067;-68
2022/05/20 01:20:38;;;;;;;11.52;9.18;;;15.70;71.40;;;;;;5113380;28;20025;-68
2022/05/20 01:23:17;;;;;;;19.13;10.70;;;15.60;71.30;;;;;;5113455;28;20016;-68
2022/05/20 01:25:48;;;;;;;33.08;11.63;;;15.60;72.10;;;;;;5117546;28;20044;-68
2022/05/20 01:28:16;;;;;;;53.63;12.17;;;15.50;72.20;;;;;;5120256;28;20016;-69
2022/05/20 01:30:50;;;;;;;13.50;10.50;;;15.40;72.60;;;;;;5120073;28;20023;-68
2022/05/20 01:33:34;;;;;;;33.35;12.50;;;15.20;73.00;;;;;;5120122;28;20074;-68
2022/05/20 01:36:04;;;;;;;36.45;15.05;;;15.40;72.60;;;;;;5120083;28;20020;-68
2022/05/20 01:38:30;;;;;;;25.20;13.25;;;15.50;72.20;;;;;;5120037;28;20031;-68
2022/05/20 01:41:29;;;;;;;23.65;13.10;;;15.50;72.40;;;;;;5119941;28;20020;-69
2022/05/20 01:44:13;;;;;;;108.80;16.85;;;15.50;72.10;;;;;;5120160;28;20016;-69
2022/05/20 01:46:51;;;;;;;32.92;13.45;;;15.60;72.10;;;;;;5120136;28;20022;-68
2022/05/20 01:49:33;;;;;;;25.08;12.80;;;15.50;72.20;;;;;;5120007;28;20080;-68
2022/05/20 01:52:18;;;;;;;;;;;15.40;72.40;;;;;;5120408;28;20047;-68
2022/05/20 01:54:54;;;;;;;34.67;15.32;;;15.40;72.70;;;;;;5120014;28;19967;-68
2022/05/20 01:57:24;;;;;;;26.27;13.68;;;15.30;73.70;;;;;;5119910;28;20032;-69
2022/05/20 01:59:57;;;;;;;33.67;12.93;;;15.30;73.80;;;;;;5119875;28;20016;-68
2022/05/20 02:02:43;;;;;;;24.73;13.18;;;15.30;73.30;;;;;;5119796;28;20027;-68
2022/05/20 02:05:24;;;;;;;20.95;12.90;;;15.20;73.20;;;;;;5119939;28;20024;-68
2022/05/20 02:07:56;;;;;;;19.85;12.90;;;15.20;73.80;;;;;;5119834;28;20020;-68
2022/05/20 02:10:55;;;;;;;22.77;12.63;;;15.20;73.40;;;;;;5119917;28;20047;-68
2022/05/20 02:13:25;;;;;;;20.08;14.05;;;15.20;73.20;;;;;;5106324;28;20028;-69
2022/05/20 02:16:06;;;;;;;22.30;13.07;;;15.20;73.80;;;;;;5118858;28;20052;-69
2022/05/20 02:18:39;;;;;;;23.80;13.35;;;15.30;73.70;;;;;;5119717;28;20483;-69
2022/05/20 02:21:15;;;;;;;23.10;14.65;;;15.20;73.50;;;;;;5119597;28;20012;-68
2022/05/20 02:23:46;;;;;;;28.70;16.40;;;15.10;73.60;;;;;;5119485;28;20020;-69
2022/05/20 02:26:18;;;;;;;48.42;17.52;;;15.20;73.40;;;;;;5119626;28;20461;-68
2022/05/20 02:28:49;;;;;;;23.27;14.23;;;15.30;73.20;;;;;;5119538;28;20027;-68
2022/05/20 02:31:23;;;;;;;27.67;15.70;;;15.20;73.20;;;;;;5119595;28;20047;-69
2022/05/20 02:33:50;;;;;;;35.85;15.95;;;15.20;73.20;;;;;;5119544;28;20024;-69
2022/05/20 02:36:31;;;;;;;31.98;16.17;;;15.10;73.20;;;;;;5118022;28;20054;-69
2022/05/20 02:38:57;;;;;;;43.92;15.93;;;15.10;73.50;;;;;;5116371;28;20031;-68
2022/05/20 02:41:23;;;;;;;27.88;16.25;;;15.10;73.50;;;;;;5116159;28;20088;-68
2022/05/20 02:43:48;;;;;;;21.88;15.18;;;15.10;73.90;;;;;;5116250;28;20066;-69
2022/05/20 02:46:14;;;;;;;31.92;15.38;;;15.10;74.00;;;;;;5116117;28;20024;-68
2022/05/20 02:48:41;;;;;;;21.38;14.68;;;15.20;73.80;;;;;;5116100;28;20043;-69
2022/05/20 02:51:07;;;;;;;26.02;14.38;;;15.10;73.70;;;;;;5116081;28;20035;-68
2022/05/20 02:53:32;;;;;;;18.15;13.73;;;15.20;73.70;;;;;;5116152;28;20025;-69
2022/05/20 02:56:00;;;;;;;17.35;13.55;;;15.00;73.90;;;;;;5115937;28;20091;-69
2022/05/20 03:04:12;;;;;;;27.67;14.63;;;15.00;72.90;;;;;;5115883;28;20038;-69
2022/05/20 03:06:40;;;;;;;22.40;13.55;;;15.10;73.20;;;;;;5115927;28;20028;-68
2022/05/20 03:09:06;;;;;;;94.32;15.50;;;15.10;72.70;;;;;;5115735;28;20375;-68
2022/05/20 03:11:33;;;;;;;108.80;17.05;;;14.90;72.10;;;;;;5115642;28;20050;-68
2022/05/20 03:14:01;;;;;;;53.45;15.68;;;14.70;72.60;;;;;;5115648;28;20054;-68
2022/05/20 03:16:26;;;;;;;49.00;15.93;;;14.60;73.50;;;;;;5115586;28;20028;-68
2022/05/20 03:18:52;;;;;;;26.67;14.90;;;14.50;74.30;;;;;;5115483;28;20034;-68
2022/05/20 03:21:17;;;;;;;31.38;15.55;;;14.40;74.80;;;;;;5115502;28;20028;-68
2022/05/20 03:23:43;;;;;;;39.03;15.77;;;14.50;74.60;;;;;;5114303;28;20028;-69
2022/05/20 03:26:09;;;;;;;32.35;15.02;;;14.60;74.40;;;;;;5115461;28;20054;-68
2022/05/20 03:28:35;;;;;;;45.45;16.40;;;14.70;74.60;;;;;;5115273;28;20042;-69
2022/05/20 03:31:06;;;;;;;32.05;15.40;;;14.70;74.30;;;;;;5115316;28;20038;-69
2022/05/20 03:33:32;;;;;;;63.60;16.03;;;14.70;74.40;;;;;;5114174;28;20020;-69
2022/05/20 03:35:58;;;;;;;29.92;14.95;;;14.70;74.40;;;;;;5115208;28;20024;-69
2022/05/20 03:38:24;;;;;;;23.15;15.10;;;14.80;74.40;;;;;;5115153;28;20031;-68
2022/05/20 03:40:50;;;;;;;23.92;16.20;;;14.60;74.90;;;;;;5115079;28;20036;-69
2022/05/20 03:43:15;;;;;;;41.38;16.05;;;14.70;75.20;;;;;;5115108;28;20024;-69
2022/05/20 03:45:44;;;;;;;34.75;15.32;;;14.70;75.00;;;;;;5114995;28;20024;-69
2022/05/20 03:48:10;;;;;;;30.75;15.05;;;14.60;74.90;;;;;;5114072;28;20035;-68
2022/05/20 03:50:36;;;;;;;27.73;14.90;;;14.70;75.50;;;;;;5114796;28;20020;-68
2022/05/20 03:53:03;;;;;;;43.05;16.83;;;14.70;76.10;;;;;;5114963;28;20032;-69
2022/05/20 03:55:29;;;;;;;29.23;13.65;;;14.70;75.10;;;;;;5114838;28;20088;-69
2022/05/20 03:57:55;;;;;;;18.80;13.57;;;14.70;75.00;;;;;;5114791;28;20032;-69
2022/05/20 04:00:21;;;;;;;26.10;13.18;;;14.70;75.00;;;;;;5114830;28;20039;-69
2022/05/20 04:02:47;;;;;;;27.65;13.20;;;14.60;74.90;;;;;;5114563;28;20468;-69
2022/05/20 04:05:13;;;;;;;22.58;15.18;;;14.50;74.90;;;;;;5114557;28;20051;-69
2022/05/20 04:07:38;;;;;;;23.50;14.50;;;14.50;75.10;;;;;;5114591;28;20035;-69
2022/05/20 04:10:06;;;;;;;29.75;13.52;;;14.60;75.00;;;;;;5114571;28;20024;-69
2022/05/20 04:12:35;;;;;;;18.15;13.45;;;14.60;74.80;;;;;;5114461;28;20024;-68
2022/05/20 04:15:01;;;;;;;17.27;13.95;;;14.50;75.00;;;;;;5114462;28;20028;-68
2022/05/20 04:17:27;;;;;;;20.63;14.10;;;14.50;75.40;;;;;;5114421;28;20049;-68
2022/05/20 04:19:53;;;;;;;19.63;14.02;;;14.60;75.20;;;;;;5114310;28;20052;-68
2022/05/20 04:22:34;;;;;;;23.33;13.85;;;14.60;75.00;;;;;;5114191;28;20032;-68
2022/05/20 04:25:00;;;;;;;19.35;14.15;;;14.70;75.00;;;;;;5114077;28;20071;-68
2022/05/20 04:27:29;;;;;;;22.50;14.82;;;14.70;75.10;;;;;;5114227;28;20028;-68
2022/05/20 04:29:55;;;;;;;21.52;13.38;;;14.70;75.30;;;;;;5114088;28;20467;-68
2022/05/20 04:32:21;;;;;;;29.17;13.55;;;14.70;75.30;;;;;;5114090;28;20092;-67
2022/05/20 04:34:47;;;;;;;41.55;15.38;;;14.70;75.90;;;;;;5114053;28;20043;-68
2022/05/20 04:37:13;;;;;;;45.95;14.73;;;14.50;75.90;;;;;;5114097;28;20028;-68
2022/05/20 04:39:39;;;;;;;49.83;14.43;;;14.30;76.80;;;;;;5114016;28;20031;-68
2022/05/20 04:47:34;;;;;;;40.08;14.02;;;14.30;78.90;;;;;;5113840;28;20061;-68
2022/05/20 04:50:00;;;;;;;33.88;14.52;;;14.50;78.80;;;;;;5113881;28;20064;-68
2022/05/20 04:52:26;;;;;;;53.28;15.40;;;14.50;78.70;;;;;;5113805;28;20028;-68
2022/05/20 04:54:52;;;;;;;53.25;15.73;;;14.50;79.10;;;;;;5113755;28;20039;-68
2022/05/20 04:57:25;;;;;;;83.25;17.95;;;14.50;79.40;;;;;;5113728;28;20024;-68
2022/05/20 04:59:52;;;;;;;35.85;16.95;;;14.50;79.70;;;;;;5113408;28;20024;-68
2022/05/20 05:02:18;;;;;;;27.50;16.27;;;14.40;79.70;;;;;;5113556;28;20027;-68
2022/05/20 05:04:44;;;;;;;25.15;15.23;;;14.40;80.40;;;;;;5113616;28;20042;-68
2022/05/20 05:07:11;;;;;;;28.00;16.23;;;14.40;80.60;;;;;;5113501;28;20049;-68
2022/05/20 05:09:39;;;;;;;25.13;16.17;;;14.50;80.80;;;;;;5113526;28;20109;-68
2022/05/20 05:12:06;;;;;;;27.70;16.23;;;14.70;80.70;;;;;;5113572;28;20027;-68
2022/05/20 05:14:41;;;;;;;54.97;16.35;;;14.80;80.50;;;;;;5113421;28;20088;-68
2022/05/20 05:17:08;;;;;;;73.75;17.15;;;14.80;80.70;;;;;;5112562;28;20024;-68
2022/05/20 05:19:36;;;;;;;51.03;16.33;;;14.80;80.20;;;;;;5111920;28;20032;-68
2022/05/20 05:22:04;;;;;;;31.83;16.70;;;14.80;80.20;;;;;;5113320;28;20024;-68
2022/05/20 05:24:30;;;;;;;28.48;17.33;;;14.80;80.40;;;;;;5113223;28;20048;-69
2022/05/20 05:26:56;;;;;;;29.65;17.63;;;14.90;80.80;;;;;;5113335;28;20028;-68
2022/05/20 05:29:21;;;;;;;41.28;17.52;;;15.00;80.70;;;;;;5113272;28;20054;-68
2022/05/20 05:31:48;;;;;;;31.27;18.65;;;15.00;80.90;;;;;;5113280;28;20056;-68
2022/05/20 05:34:14;;;;;;;30.80;17.98;;;15.00;80.30;;;;;;5113312;28;20016;-68
2022/05/20 05:36:40;;;;;;;25.92;17.27;;;14.90;81.10;;;;;;5113278;28;20032;-70
2022/05/20 05:39:05;;;;;;;27.35;17.83;;;14.90;81.10;;;;;;5113256;28;20024;-68
2022/05/20 05:41:31;;;;;;;25.70;18.95;;;15.00;81.80;;;;;;5113020;28;20031;-68
2022/05/20 05:44:03;;;;;;;29.70;18.75;;;15.00;81.80;;;;;;5113253;28;20039;-68
2022/05/20 05:46:30;;;;;;;26.58;18.63;;;15.00;82.10;;;;;;5113267;28;20016;-68
2022/05/20 05:48:56;;;;;;;28.02;19.63;;;15.00;82.20;;;;;;5113168;28;20020;-68
2022/05/20 05:51:23;;;;;;;34.38;20.67;;;15.10;82.80;;;;;;5113138;28;20044;-68
2022/05/20 05:53:49;;;;;;;32.85;20.48;;;15.20;83.00;;;;;;5113133;28;20094;-68
2022/05/20 05:56:14;;;;;;;32.05;20.50;;;15.30;83.20;;;;;;5113093;28;20031;-68
2022/05/20 05:58:40;;;;;;;31.48;20.08;;;15.30;83.70;;;;;;5113144;28;20040;-68
2022/05/20 06:01:06;;;;;;;29.35;19.63;;;15.40;83.10;;;;;;5112960;28;20111;-68
2022/05/20 06:03:32;;;;;;;31.85;19.80;;;15.50;83.00;;;;;;5113029;28;20024;-68
2022/05/20 06:05:59;;;;;;;30.02;19.58;;;15.50;83.10;;;;;;5112995;28;20116;-68
2022/05/20 06:08:25;;;;;;;31.17;20.65;;;15.60;83.30;;;;;;5113075;28;20050;-68
2022/05/20 06:10:51;;;;;;;38.38;21.58;;;15.60;83.70;;;;;;5112986;28;20044;-68
2022/05/20 06:13:28;;;;;;;35.53;20.23;;;15.70;84.30;;;;;;5116111;28;20024;-69
2022/05/20 06:15:57;;;;;;;35.70;20.75;;;15.80;84.30;;;;;;5116844;28;20028;-76
2022/05/20 06:18:24;;;;;;;36.33;20.38;;;15.90;84.00;;;;;;5116774;28;20047;-73
2022/05/20 06:20:49;;;;;;;35.20;21.27;;;15.90;84.30;;;;;;5116718;28;20024;-73
2022/05/20 06:23:15;;;;;;;36.55;20.65;;;15.90;84.30;;;;;;5116593;28;20031;-73
2022/05/20 06:25:42;;;;;;;34.58;20.80;;;15.90;84.40;;;;;;5116406;28;20059;-73
2022/05/20 06:28:11;;;;;;;34.55;21.00;;;16.00;84.30;;;;;;5116492;28;20020;-73
2022/05/20 06:30:38;;;;;;;32.17;18.95;;;16.10;84.90;;;;;;5116535;28;20013;-73
2022/05/20 06:33:04;;;;;;;30.35;18.15;;;16.10;84.20;;;;;;5115456;28;20031;-73
2022/05/20 06:40:59;;;;;;;25.67;16.02;;;16.40;83.10;;;;;;5116526;28;20065;-74
2022/05/20 06:43:26;;;;;;;27.80;14.63;;;16.50;82.70;;;;;;5116226;28;20051;-72
2022/05/20 06:45:58;;;;;;;23.52;14.52;;;16.60;82.00;;;;;;5116189;28;20104;-72
2022/05/20 06:48:35;;;;;;;23.48;13.30;;;16.70;81.60;;;;;;5116380;28;20016;-73
2022/05/20 06:51:03;;;;;;;24.20;13.27;;;16.70;80.00;;;;;;5116193;28;20080;-73
2022/05/20 06:53:29;;;;;;;21.73;14.00;;;16.70;80.30;;;;;;5116084;28;20024;-72
2022/05/20 06:55:54;;;;;;;22.42;13.93;;;16.80;79.10;;;;;;5116063;28;20035;-71
2022/05/20 06:58:20;;;;;;;21.88;14.00;;;16.90;78.80;;;;;;5115998;28;20032;-73
2022/05/20 07:00:46;;;;;;;21.58;12.65;;;16.90;78.70;;;;;;5115051;28;20074;-72
2022/05/20 07:03:11;;;;;;;20.58;13.15;;;17.00;77.60;;;;;;5115938;28;20024;-72
2022/05/20 07:05:37;;;;;;;21.10;13.40;;;17.10;77.30;;;;;;5115830;28;20074;-72
2022/05/20 07:08:02;;;;;;;20.50;12.68;;;17.20;78.00;;;;;;5115778;28;20032;-72
2022/05/20 07:10:28;;;;;;;23.30;14.50;;;17.20;76.80;;;;;;5115735;28;20024;-72
2022/05/20 07:12:54;;;;;;;21.45;14.75;;;17.20;77.30;;;;;;5115813;28;20039;-72
2022/05/20 07:15:19;;;;;;;18.65;12.25;;;17.20;78.10;;;;;;5115667;28;20031;-71
2022/05/20 07:17:47;;;;;;;18.33;11.90;;;17.30;78.20;;;;;;5115726;28;20488;-72
2022/05/20 07:20:12;;;;;;;18.90;11.15;;;17.40;77.10;;;;;;5115582;28;20054;-72
2022/05/20 07:22:39;;;;;;;20.20;11.32;;;17.50;76.30;;;;;;5115110;28;20040;-72
2022/05/20 07:25:05;;;;;;;19.65;11.50;;;17.50;75.90;;;;;;5115225;28;20055;-72
2022/05/20 07:27:31;;;;;;;21.85;11.82;;;17.60;75.60;;;;;;5115404;28;20027;-71
2022/05/20 07:29:57;;;;;;;18.38;12.57;;;17.70;75.00;;;;;;5115255;28;20028;-72
2022/05/20 07:32:22;;;;;;;21.38;11.70;;;17.70;75.30;;;;;;5115284;28;20111;-72
2022/05/20 07:34:48;;;;;;;18.15;10.63;;;17.80;75.00;;;;;;5114281;28;20053;-68
2022/05/20 07:37:14;;;;;;;17.80;10.57;;;17.90;74.70;;;;;;5115282;28;20035;-66
2022/05/20 07:39:39;;;;;;;15.80;8.27;;;18.00;74.40;;;;;;5115102;28;20066;-66
2022/05/20 07:42:06;;;;;;;16.75;8.20;;;18.10;73.90;;;;;;5115047;28;20083;-67
2022/05/20 07:44:33;;;;;;;12.27;7.07;;;18.20;73.60;;;;;;5115038;28;20020;-66
2022/05/20 07:46:59;;;;;;;19.10;9.25;;;18.30;72.70;;;;;;5114979;28;20024;-66
2022/05/20 07:49:24;;;;;;;12.52;8.15;;;18.40;72.60;;;;;;5114945;28;20035;-66
2022/05/20 07:51:55;;;;;;;15.43;8.30;;;18.50;71.90;;;;;;5114860;28;20048;-68
2022/05/20 07:54:23;;;;;;;15.15;9.32;;;18.60;70.20;;;;;;5114896;28;20082;-67
2022/05/20 07:57:01;;;;;;;16.20;8.88;;;18.60;71.20;;;;;;5114803;28;20084;-67
2022/05/20 07:59:51;;;;;;;16.73;7.22;;;18.50;68.10;;;;;;5114925;28;20035;-67
2022/05/20 08:02:22;;;;;;;12.25;6.45;;;18.60;69.90;;;;;;5104681;28;20032;-67
2022/05/20 08:04:58;;;;;;;12.57;6.78;;;18.60;68.10;;;;;;5114770;28;20016;-72
2022/05/20 08:07:33;;;;;;;12.25;6.10;;;18.70;67.60;;;;;;5114710;28;20016;-72
2022/05/20 08:10:05;;;;;;;11.02;6.82;;;18.80;67.40;;;;;;5114701;28;20050;-72
2022/05/20 08:12:30;;;;;;;13.32;7.22;;;18.80;68.40;;;;;;5114468;28;20058;-72
2022/05/20 08:14:56;;;;;;;13.98;6.63;;;18.90;68.70;;;;;;5114477;28;20036;-71
2022/05/20 08:17:24;;;;;;;8.50;6.50;;;19.00;68.70;;;;;;5114386;28;20031;-72
2022/05/20 08:19:51;;;;;;;11.60;6.68;;;19.10;68.70;;;;;;5114398;28;20087;-72
2022/05/20 08:22:22;;;;;;;9.77;6.22;;;19.00;66.30;;;;;;5114423;28;20020;-72
2022/05/20 08:24:52;;;;;;;10.25;6.55;;;19.00;66.90;;;;;;5114121;28;20558;-70
2022/05/20 08:27:18;;;;;;;12.32;5.50;;;19.10;67.10;;;;;;5114378;28;20024;-70
2022/05/20 08:29:44;;;;;;;9.45;5.57;;;19.20;68.00;;;;;;5114188;28;20043;-71
2022/05/20 08:32:10;;;;;;;9.02;5.28;;;19.30;68.10;;;;;;5114127;28;20036;-70
2022/05/20 08:34:35;;;;;;;11.70;5.78;;;19.40;67.80;;;;;;5112378;28;20032;-71
2022/05/20 08:37:01;;;;;;;6.80;3.83;;;19.50;66.60;;;;;;5114023;28;20062;-71
2022/05/20 08:39:27;;;;;;;5.35;3.30;;;19.50;64.60;;;;;;5114015;28;20043;-71
2022/05/20 08:41:54;;;;;;;4.55;2.42;;;19.60;65.10;;;;;;5113903;28;20031;-70
2022/05/20 08:44:22;;;;;;;6.53;3.33;;;19.60;59.70;;;;;;5113937;28;20032;-70
2022/05/20 08:46:48;;;;;;;7.03;2.97;;;19.60;60.20;;;;;;5113921;28;20022;-70
2022/05/20 08:49:21;;;;;;;19.02;3.35;;;19.60;59.20;;;;;;5113906;28;20024;-70
2022/05/20 08:51:52;;;;;;;5.43;3.55;;;19.60;59.80;;;;;;5113863;28;20027;-70
2022/05/20 08:54:18;;;;;;;7.03;3.00;;;19.60;61.60;;;;;;5112835;28;20059;-70
2022/05/20 08:56:46;;;;;;;8.13;5.22;;;19.70;61.90;;;;;;5113764;28;20055;-70
2022/05/20 08:59:17;;;;;;;8.48;5.00;;;19.70;61.20;;;;;;5113640;28;20094;-70
2022/05/20 09:01:45;;;;;;;9.95;5.50;;;19.70;61.00;;;;;;5112598;28;20111;-70
2022/05/20 09:04:14;;;;;;;9.40;5.95;;;19.70;62.70;;;;;;5113677;28;20055;-70
2022/05/20 09:06:57;;;;;;;8.88;6.00;;;19.70;62.00;;;;;;5113622;28;20095;-71
2022/05/20 09:09:39;;;;;;;8.48;6.10;;;19.60;62.20;;;;;;5113566;28;20026;-70
2022/05/20 09:12:05;;;;;;;10.63;6.82;;;19.70;62.90;;;;;;5113615;28;20024;-70
2022/05/20 09:17:24;;;;;;;11.15;6.50;;;19.90;61.70;;;;;;5113602;28;20043;-70
2022/05/20 09:19:57;;;;;;;10.70;6.68;;;19.90;61.30;;;;;;5113498;28;20103;-70
2022/05/20 09:22:31;;;;;;;11.73;7.43;;;20.00;62.00;;;;;;5113543;28;20017;-70
2022/05/20 09:24:57;;;;;;;9.63;6.65;;;20.00;62.00;;;;;;5113327;28;20056;-70
2022/05/20 09:27:32;;;;;;;11.85;7.38;;;20.00;63.00;;;;;;5113346;28;20024;-70
2022/05/20 09:30:01;;;;;;;11.90;7.07;;;20.10;61.60;;;;;;5113313;28;20034;-70
2022/05/20 09:32:35;;;;;;;12.07;6.80;;;20.00;62.90;;;;;;5113364;28;20028;-70
2022/05/20 09:35:07;;;;;;;10.50;7.47;;;20.00;60.90;;;;;;5113470;28;20093;-71
2022/05/20 09:37:35;;;;;;;11.13;7.47;;;20.00;62.60;;;;;;5113324;28;20024;-71
2022/05/20 09:40:21;;;;;;;10.98;6.93;;;20.00;61.80;;;;;;5112261;28;20058;-70
2022/05/20 09:43:22;;;;;;;10.18;6.70;;;20.10;63.20;;;;;;5113328;28;20020;-70
2022/05/20 09:45:49;;;;;;;11.95;6.65;;;20.20;62.30;;;;;;5110127;28;20059;-71
2022/05/20 09:48:36;;;;;;;8.60;6.20;;;20.20;63.10;;;;;;5117327;28;20016;-71
2022/05/20 09:51:15;;;;;;;11.20;7.45;;;20.30;62.60;;;;;;5117264;28;20038;-70
2022/05/20 09:53:44;;;;;;;15.50;7.88;;;20.30;63.40;;;;;;5117220;28;20063;-70
2022/05/20 09:56:22;;;;;;;11.02;7.60;;;20.40;63.40;;;;;;5117183;28;20041;-71
2022/05/20 09:59:19;;;;;;;10.93;7.20;;;20.60;63.90;;;;;;5117235;28;20016;-71
2022/05/20 10:01:56;;;;;;;11.43;7.68;;;20.70;61.00;;;;;;5117216;28;20085;-71
2022/05/20 10:04:31;;;;;;;11.00;7.68;;;20.60;62.10;;;;;;5116073;28;20463;-71
2022/05/20 10:06:59;;;;;;;14.30;7.47;;;20.80;64.60;;;;;;5117198;28;20027;-71
2022/05/20 10:09:51;;;;;;;14.32;7.80;;;20.90;64.20;;;;;;5115908;28;20085;-71
2022/05/20 10:12:39;;;;;;;10.73;7.88;;;21.20;64.10;;;;;;5116997;28;20043;-71
2022/05/20 10:15:28;;;;;;;14.82;8.88;;;21.30;61.30;;;;;;5116910;28;20020;-70
2022/05/20 10:18:15;;;;;;;15.02;8.55;;;21.40;62.40;;;;;;5116850;28;20027;-70
2022/05/20 10:21:06;;;;;;;12.75;8.05;;;21.50;63.90;;;;;;5116816;28;20043;-71
2022/05/20 10:24:13;;;;;;;16.13;9.45;;;21.70;64.30;;;;;;5074895;28;20044;-71
2022/05/20 10:27:00;;;;;;;15.82;9.00;;;21.80;61.80;;;;;;5116728;28;20039;-70
2022/05/20 10:32:41;;;;;;;13.15;8.63;;;22.00;63.00;;;;;;5116652;28;20063;-70
2022/05/20 10:35:10;;;;;;;20.15;9.18;;;22.00;60.00;;;;;;5116612;28;20023;-71
2022/05/20 10:38:01;;;;;;;16.73;10.20;;;22.00;60.30;;;;;;5116415;28;20099;-70
2022/05/20 10:40:51;;;;;;;14.80;10.10;;;21.90;60.20;;;;;;5116478;28;20020;-70
2022/05/20 10:49:43;;;;;;;18.02;10.98;;;21.60;60.60;;;;;;5116444;28;20494;-69
2022/05/20 10:52:27;;;;;;;;;;;21.70;62.70;;;;;;5116581;28;20083;-70
2022/05/20 10:55:10;;;;;;;15.23;10.43;;;21.70;61.90;;;;;;5116132;28;19904;-70
2022/05/20 10:58:23;;;;;;;15.63;9.55;;;21.70;61.50;;;;;;5115334;28;20024;-70
2022/05/20 11:00:55;;;;;;;15.27;10.80;;;21.70;63.30;;;;;;5033931;28;20062;-70
2022/05/20 11:03:53;;;;;;;16.35;11.13;;;21.70;62.50;;;;;;5106552;28;20036;-70
2022/05/20 11:06:25;;;;;;;15.52;11.15;;;21.70;63.30;;;;;;5102496;28;20087;-70
2022/05/20 11:09:08;;;;;;;17.20;10.75;;;21.80;62.30;;;;;;5115940;28;20020;-70
2022/05/20 11:11:52;;;;;;;17.38;11.52;;;21.80;61.60;;;;;;5115807;28;20093;-70
2022/05/20 11:14:48;;;;;;;20.27;11.63;;;21.90;62.70;;;;;;5115862;28;20028;-70
2022/05/20 11:17:29;;;;;;;19.77;12.20;;;22.00;63.50;;;;;;5114667;28;20091;-70
2022/05/20 11:20:32;;;;;;;21.20;12.60;;;22.10;63.60;;;;;;5115577;28;20050;-70
2022/05/20 11:23:19;;;;;;;17.17;12.95;;;22.10;63.70;;;;;;5115655;28;20075;-70
2022/05/20 11:26:13;;;;;;;21.17;13.20;;;22.10;63.30;;;;;;5115390;28;20052;-70
2022/05/20 11:29:17;;;;;;;21.10;12.70;;;22.10;62.80;;;;;;5115374;28;20024;-70
2022/05/20 11:31:57;;;;;;;21.40;12.70;;;22.10;62.60;;;;;;5113762;28;20036;-70
2022/05/20 11:35:01;;;;;;;21.30;14.20;;;22.10;64.80;;;;;;5115386;28;20050;-70
2022/05/20 11:37:29;;;;;;;20.75;13.27;;;22.20;62.90;;;;;;5115271;28;20028;-70
2022/05/20 11:40:05;;;;;;;23.80;15.38;;;22.20;64.00;;;;;;5115174;28;20083;-70
2022/05/20 11:43:13;;;;;;;22.90;15.63;;;22.20;64.80;;;;;;5115119;28;20052;-70
2022/05/20 11:45:56;;;;;;;21.65;15.02;;;22.30;63.00;;;;;;5115002;28;20028;-70
2022/05/20 11:48:37;;;;;;;25.13;15.63;;;22.20;63.00;;;;;;5113914;28;20020;-70
2022/05/20 11:51:27;;;;;;;23.20;15.40;;;22.10;64.20;;;;;;5114870;28;20028;-70
2022/05/20 11:54:01;;;;;;;27.02;15.90;;;22.10;65.20;;;;;;5115047;28;20024;-70
2022/05/20 11:56:53;;;;;;;23.42;15.80;;;22.00;64.70;;;;;;5114942;28;20028;-70
2022/05/20 11:59:31;;;;;;;23.23;14.88;;;21.90;64.40;;;;;;5114856;28;20016;-70
2022/05/20 12:01:59;;;;;;;24.95;15.57;;;21.80;65.30;;;;;;5114739;28;20077;-70
2022/05/20 12:04:29;;;;;;;23.83;15.32;;;21.80;65.00;;;;;;5114665;28;20020;-70
2022/05/20 12:07:03;;;;;;;30.00;16.33;;;21.70;65.10;;;;;;5114641;28;20082;-69
2022/05/20 12:09:34;;;;;;;28.88;16.77;;;21.60;65.80;;;;;;5113794;28;20020;-69
2022/05/20 12:12:11;;;;;;;25.90;15.55;;;21.60;66.20;;;;;;5114645;28;20047;-70
2022/05/20 12:15:08;;;;;;;25.73;14.77;;;21.50;65.80;;;;;;5114441;28;20043;-69
2022/05/20 12:17:35;;;;;;;23.83;15.05;;;21.50;66.10;;;;;;5114380;28;20024;-70
2022/05/20 12:26:15;;;;;;;23.50;14.88;;;21.50;67.70;;;;;;5114137;28;20052;-70
2022/05/20 12:28:41;;;;;;;27.50;16.95;;;21.50;68.10;;;;;;5104006;28;20051;-70
2022/05/20 12:31:23;;;;;;;29.05;17.13;;;21.40;69.50;;;;;;5114229;28;20058;-70
2022/05/20 12:34:05;;;;;;;35.97;17.70;;;21.30;70.70;;;;;;5113191;28;20058;-69
2022/05/20 12:36:36;;;;;;;27.30;16.85;;;21.30;71.10;;;;;;5114226;28;20027;-70
2022/05/20 12:39:07;;;;;;;31.00;17.95;;;21.30;71.50;;;;;;5114116;28;20031;-69
2022/05/20 12:41:39;;;;;;;36.07;19.83;;;21.20;72.10;;;;;;5114069;28;20032;-68
2022/05/20 12:44:17;;;;;;;32.30;19.37;;;21.20;73.40;;;;;;5114078;28;20035;-68
2022/05/20 12:47:01;;;;;;;43.42;21.00;;;21.10;74.10;;;;;;5113944;28;20262;-69
2022/05/20 12:49:47;;;;;;;35.35;19.17;;;20.90;77.00;;;;;;5113946;28;20030;-70
2022/05/20 12:52:29;;;;;;;34.15;21.10;;;20.60;77.50;;;;;;5082647;28;20492;-69
2022/05/20 12:55:10;;;;;;;37.50;22.27;;;20.30;78.80;;;;;;5113936;28;20024;-69
2022/05/20 12:57:36;;;;;;;32.08;19.42;;;20.30;79.50;;;;;;5113896;28;20042;-69
2022/05/20 13:00:12;;;;;;;34.35;20.95;;;20.20;79.40;;;;;;5113832;28;20020;-69
2022/05/20 13:02:51;;;;;;;38.30;21.08;;;20.30;79.80;;;;;;5113811;28;20028;-70
2022/05/20 13:05:32;;;;;;;34.28;21.73;;;20.20;79.60;;;;;;5113896;28;20040;-68
2022/05/20 13:08:00;;;;;;;35.72;22.30;;;20.10;81.10;;;;;;5113773;28;20035;-69
2022/05/20 13:10:29;;;;;;;36.88;21.60;;;20.10;81.10;;;;;;5113665;28;20020;-69
2022/05/20 13:13:02;;;;;;;43.17;22.65;;;20.20;81.70;;;;;;5113616;28;20471;-70
2022/05/20 13:15:28;;;;;;;48.65;24.33;;;20.30;82.60;;;;;;5113542;28;20024;-70
2022/05/20 13:18:02;;;;;;;42.13;24.63;;;20.20;82.90;;;;;;5113477;28;20028;-70
2022/05/20 13:20:31;;;;;;;39.60;24.52;;;20.30;83.10;;;;;;5113324;28;20025;-70
2022/05/20 13:23:01;;;;;;;43.95;25.33;;;20.30;83.30;;;;;;5113555;28;20046;-70
2022/05/20 13:25:28;;;;;;;44.38;25.33;;;20.40;83.00;;;;;;5113284;28;20067;-70
2022/05/20 13:27:53;;;;;;;41.97;24.98;;;20.40;82.40;;;;;;5112364;28;20420;-69
2022/05/20 13:30:23;;;;;;;42.88;24.73;;;20.40;82.50;;;;;;5113413;28;20094;-69